sensor_id;sensor_type;location;lat;lon;timestamp;pressure;altitude;pressure_sealevel;temperature;humidity
18678;BME280;9469;51.114;13.914;2023-01-28T00:00:32;99578.22;;;0.68;100.00
18678;BME280;9469;51.114;13.914;2023-01-28T00:05:41;99570.97;;;0.70;100.00
18678;BME280;9469;51.114;13.914;2023-01-28T00:10:46;99576.31;;;0.57;100.00
18678;BME280;9469;51.114;13.914;2023-01-28T00:15:57;99583.16;;;0.58;100.00
18678;BME280;9469;51.114;13.914;2023-01-28T00:21:04;99588.47;;;0.45;100.00
18678;BME280;9469;51.114;13.914;2023-01-28T00:26:12;99582.59;;;0.50;100.00
18678;BME280;9469;51.114;13.914;2023-01-28T00:31:25;99582.25;;;0.46;100.00
18678;BME280;9469;51.114;13.914;2023-01-28T00:36:30;99584.44;;;0.49;100.00
18678;BME280;9469;51.114;13.914;2023-01-28T00:41:36;99584.88;;;0.46;100.00
18678;BME280;9469;51.114;13.914;2023-01-28T00:46:43;99581.31;;;0.34;100.00
18678;BME280;9469;51.114;13.914;2023-01-28T00:51:49;99580.03;;;0.43;100.00
18678;BME280;9469;51.114;13.914;2023-01-28T00:56:54;99585.50;;;0.42;100.00
18678;BME280;9469;51.114;13.914;2023-01-28T01:02:01;99582.03;;;0.48;100.00
18678;BME280;9469;51.114;13.914;2023-01-28T01:07:16;99575.03;;;0.42;100.00
18678;BME280;9469;51.114;13.914;2023-01-28T01:12:22;99585.56;;;0.35;100.00
18678;BME280;9469;51.114;13.914;2023-01-28T01:17:31;99581.56;;;0.57;100.00
18678;BME280;9469;51.114;13.914;2023-01-28T01:22:36;99589.00;;;0.60;100.00
18678;BME280;9469;51.114;13.914;2023-01-28T01:27:42;99588.94;;;0.67;100.00
18678;BME280;9469;51.114;13.914;2023-01-28T01:32:53;99594.41;;;0.59;100.00
18678;BME280;9469;51.114;13.914;2023-01-28T01:37:58;99599.94;;;0.76;100.00
18678;BME280;9469;51.114;13.914;2023-01-28T01:43:14;99596.72;;;0.73;100.00
18678;BME280;9469;51.114;13.914;2023-01-28T01:48:26;99607.72;;;0.57;100.00
18678;BME280;9469;51.114;13.914;2023-01-28T01:53:36;99600.53;;;0.96;100.00
18678;BME280;9469;51.114;13.914;2023-01-28T01:58:46;99595.34;;;0.46;100.00
18678;BME280;9469;51.114;13.914;2023-01-28T02:04:02;99600.16;;;0.49;100.00
18678;BME280;9469;51.114;13.914;2023-01-28T02:09:24;99585.28;;;0.43;100.00
18678;BME280;9469;51.114;13.914;2023-01-28T02:14:35;99591.44;;;0.31;100.00
18678;BME280;9469;51.114;13.914;2023-01-28T02:19:48;99588.94;;;0.42;100.00
18678;BME280;9469;51.114;13.914;2023-01-28T02:25:26;99585.56;;;0.35;100.00
18678;BME280;9469;51.114;13.914;2023-01-28T02:30:41;99582.84;;;0.48;100.00
18678;BME280;9469;51.114;13.914;2023-01-28T02:35:51;99588.88;;;0.49;100.00
18678;BME280;9469;51.114;13.914;2023-01-28T02:41:03;99585.78;;;0.58;100.00
18678;BME280;9469;51.114;13.914;2023-01-28T02:46:19;99605.06;;;0.64;100.00
18678;BME280;9469;51.114;13.914;2023-01-28T02:51:46;99600.44;;;0.84;100.00
18678;BME280;9469;51.114;13.914;2023-01-28T02:57:00;99610.19;;;0.52;100.00
18678;BME280;9469;51.114;13.914;2023-01-28T03:02:17;99610.03;;;0.47;100.00
18678;BME280;9469;51.114;13.914;2023-01-28T03:07:27;99604.59;;;0.49;100.00
18678;BME280;9469;51.114;13.914;2023-01-28T03:12:38;99602.97;;;0.48;100.00
18678;BME280;9469;51.114;13.914;2023-01-28T03:18:03;99613.81;;;0.51;100.00
18678;BME280;9469;51.114;13.914;2023-01-28T03:23:29;99615.91;;;0.43;100.00
18678;BME280;9469;51.114;13.914;2023-01-28T03:28:51;99605.16;;;0.76;100.00
18678;BME280;9469;51.114;13.914;2023-01-28T03:34:14;99610.94;;;0.84;100.00
18678;BME280;9469;51.114;13.914;2023-01-28T03:39:32;99616.38;;;0.83;100.00
18678;BME280;9469;51.114;13.914;2023-01-28T03:44:38;99633.91;;;0.57;100.00
18678;BME280;9469;51.114;13.914;2023-01-28T03:49:59;99630.84;;;0.36;100.00
18678;BME280;9469;51.114;13.914;2023-01-28T03:55:16;99630.94;;;0.54;100.00
18678;BME280;9469;51.114;13.914;2023-01-28T04:00:21;99638.75;;;0.23;100.00
18678;BME280;9469;51.114;13.914;2023-01-28T04:05:31;99635.38;;;0.22;100.00
18678;BME280;9469;51.114;13.914;2023-01-28T04:10:37;99644.72;;;0.36;100.00
18678;BME280;9469;51.114;13.914;2023-01-28T04:16:12;99640.16;;;0.25;100.00
18678;BME280;9469;51.114;13.914;2023-01-28T04:21:20;99646.47;;;0.18;100.00
18678;BME280;9469;51.114;13.914;2023-01-28T04:26:25;99650.97;;;0.35;100.00
18678;BME280;9469;51.114;13.914;2023-01-28T04:31:30;99654.00;;;0.01;100.00
18678;BME280;9469;51.114;13.914;2023-01-28T04:37:10;99659.75;;;-0.28;100.00
18678;BME280;9469;51.114;13.914;2023-01-28T04:42:36;99663.28;;;-0.03;100.00
18678;BME280;9469;51.114;13.914;2023-01-28T04:48:13;99664.47;;;0.01;100.00
18678;BME280;9469;51.114;13.914;2023-01-28T04:53:41;99678.44;;;-0.25;100.00
18678;BME280;9469;51.114;13.914;2023-01-28T04:59:13;99673.88;;;0.09;100.00
18678;BME280;9469;51.114;13.914;2023-01-28T05:04:19;99683.03;;;-0.20;100.00
18678;BME280;9469;51.114;13.914;2023-01-28T05:09:26;99702.38;;;-0.21;100.00
18678;BME280;9469;51.114;13.914;2023-01-28T05:14:31;99698.84;;;-0.53;100.00
18678;BME280;9469;51.114;13.914;2023-01-28T05:19:41;99698.03;;;-0.53;100.00
18678;BME280;9469;51.114;13.914;2023-01-28T05:24:55;99705.66;;;-0.52;100.00
18678;BME280;9469;51.114;13.914;2023-01-28T05:30:01;99710.03;;;-0.33;100.00
18678;BME280;9469;51.114;13.914;2023-01-28T05:35:08;99712.91;;;-0.60;100.00
18678;BME280;9469;51.114;13.914;2023-01-28T05:40:16;99719.66;;;-0.27;100.00
18678;BME280;9469;51.114;13.914;2023-01-28T05:45:21;99732.03;;;-0.73;100.00
18678;BME280;9469;51.114;13.914;2023-01-28T05:50:35;99733.63;;;-0.52;100.00
18678;BME280;9469;51.114;13.914;2023-01-28T05:55:50;99735.66;;;-0.94;100.00
18678;BME280;9469;51.114;13.914;2023-01-28T06:00:56;99741.03;;;-1.28;100.00
18678;BME280;9469;51.114;13.914;2023-01-28T06:06:10;99740.84;;;-1.20;100.00
18678;BME280;9469;51.114;13.914;2023-01-28T06:11:18;99752.50;;;-1.22;100.00
18678;BME280;9469;51.114;13.914;2023-01-28T06:16:28;99767.16;;;-1.08;100.00
18678;BME280;9469;51.114;13.914;2023-01-28T06:21:39;99775.09;;;-1.49;100.00
18678;BME280;9469;51.114;13.914;2023-01-28T06:26:48;99782.59;;;-1.26;100.00
18678;BME280;9469;51.114;13.914;2023-01-28T06:31:54;99776.00;;;-1.22;100.00
18678;BME280;9469;51.114;13.914;2023-01-28T06:36:59;99796.47;;;-1.26;100.00
18678;BME280;9469;51.114;13.914;2023-01-28T06:42:07;99802.38;;;-1.58;100.00
18678;BME280;9469;51.114;13.914;2023-01-28T06:47:17;99797.84;;;-1.43;100.00
18678;BME280;9469;51.114;13.914;2023-01-28T06:52:22;99793.47;;;-1.83;100.00
18678;BME280;9469;51.114;13.914;2023-01-28T06:57:30;99805.53;;;-1.69;100.00
18678;BME280;9469;51.114;13.914;2023-01-28T07:02:35;99803.34;;;-1.72;100.00
18678;BME280;9469;51.114;13.914;2023-01-28T07:07:40;99817.66;;;-1.55;100.00
18678;BME280;9469;51.114;13.914;2023-01-28T07:12:50;99804.91;;;-1.17;100.00
18678;BME280;9469;51.114;13.914;2023-01-28T07:17:56;99811.75;;;-1.16;100.00
18678;BME280;9469;51.114;13.914;2023-01-28T07:23:02;99808.41;;;-0.84;100.00
18678;BME280;9469;51.114;13.914;2023-01-28T07:28:10;99825.22;;;-1.13;100.00
18678;BME280;9469;51.114;13.914;2023-01-28T07:33:22;99837.59;;;-1.41;100.00
18678;BME280;9469;51.114;13.914;2023-01-28T07:38:27;99838.47;;;-1.68;100.00
18678;BME280;9469;51.114;13.914;2023-01-28T07:43:35;99830.00;;;-1.23;100.00
18678;BME280;9469;51.114;13.914;2023-01-28T07:48:42;99827.28;;;-1.56;100.00
18678;BME280;9469;51.114;13.914;2023-01-28T07:53:47;99829.22;;;-1.71;100.00
18678;BME280;9469;51.114;13.914;2023-01-28T07:58:55;99831.63;;;-1.69;100.00
18678;BME280;9469;51.114;13.914;2023-01-28T08:04:00;99835.59;;;-1.39;100.00
18678;BME280;9469;51.114;13.914;2023-01-28T08:09:06;99828.97;;;-1.35;100.00
18678;BME280;9469;51.114;13.914;2023-01-28T08:14:15;99841.97;;;-1.48;100.00
18678;BME280;9469;51.114;13.914;2023-01-28T08:19:22;99844.97;;;-1.45;100.00
18678;BME280;9469;51.114;13.914;2023-01-28T08:24:27;99837.88;;;-1.03;100.00
18678;BME280;9469;51.114;13.914;2023-01-28T08:29:34;99844.13;;;-1.04;100.00
18678;BME280;9469;51.114;13.914;2023-01-28T08:34:40;99841.47;;;-1.11;100.00
18678;BME280;9469;51.114;13.914;2023-01-28T08:39:49;99846.25;;;-1.34;100.00
18678;BME280;9469;51.114;13.914;2023-01-28T08:44:56;99863.72;;;-1.34;100.00
18678;BME280;9469;51.114;13.914;2023-01-28T08:50:05;99857.59;;;-0.88;99.85
18678;BME280;9469;51.114;13.914;2023-01-28T08:55:10;99868.03;;;-1.01;99.75
18678;BME280;9469;51.114;13.914;2023-01-28T09:00:18;99867.41;;;-1.09;100.00
18678;BME280;9469;51.114;13.914;2023-01-28T09:05:27;99865.38;;;-1.14;99.29
18678;BME280;9469;51.114;13.914;2023-01-28T09:10:36;99877.69;;;-0.95;99.09
18678;BME280;9469;51.114;13.914;2023-01-28T09:15:45;99873.94;;;-0.73;98.17
18678;BME280;9469;51.114;13.914;2023-01-28T09:20:52;99878.28;;;-0.93;96.96
18678;BME280;9469;51.114;13.914;2023-01-28T09:26:02;99876.13;;;-0.69;98.75
18678;BME280;9469;51.114;13.914;2023-01-28T09:31:11;99888.22;;;-0.29;99.00
18678;BME280;9469;51.114;13.914;2023-01-28T09:36:16;99887.00;;;-0.73;99.03
18678;BME280;9469;51.114;13.914;2023-01-28T09:41:26;99890.22;;;-0.70;99.71
18678;BME280;9469;51.114;13.914;2023-01-28T09:46:37;99872.91;;;-0.58;100.00
18678;BME280;9469;51.114;13.914;2023-01-28T09:51:47;99891.44;;;-0.47;99.83
18678;BME280;9469;51.114;13.914;2023-01-28T09:56:58;99891.03;;;-0.31;99.99
18678;BME280;9469;51.114;13.914;2023-01-28T10:02:34;99891.03;;;-0.24;98.21
18678;BME280;9469;51.114;13.914;2023-01-28T10:07:49;99904.53;;;-0.27;93.63
18678;BME280;9469;51.114;13.914;2023-01-28T10:13:23;99896.66;;;-0.34;93.13
18678;BME280;9469;51.114;13.914;2023-01-28T10:18:42;99897.47;;;-0.46;92.33
18678;BME280;9469;51.114;13.914;2023-01-28T10:23:57;99901.91;;;-0.08;93.13
18678;BME280;9469;51.114;13.914;2023-01-28T10:29:11;99907.53;;;-0.17;91.72
18678;BME280;9469;51.114;13.914;2023-01-28T10:34:21;99902.09;;;-0.22;92.13
18678;BME280;9469;51.114;13.914;2023-01-28T10:39:27;99919.56;;;-0.75;94.04
18678;BME280;9469;51.114;13.914;2023-01-28T10:44:37;99919.75;;;-0.70;92.56
18678;BME280;9469;51.114;13.914;2023-01-28T10:49:52;99930.75;;;-0.88;93.45
18678;BME280;9469;51.114;13.914;2023-01-28T10:55:00;99925.78;;;-0.69;93.64
18678;BME280;9469;51.114;13.914;2023-01-28T11:00:16;99932.16;;;-0.92;93.71
18678;BME280;9469;51.114;13.914;2023-01-28T11:05:29;99921.03;;;-0.14;92.02
18678;BME280;9469;51.114;13.914;2023-01-28T11:10:43;99922.03;;;-0.28;91.58
18678;BME280;9469;51.114;13.914;2023-01-28T11:15:50;99919.63;;;-0.10;90.27
18678;BME280;9469;51.114;13.914;2023-01-28T11:21:03;99920.63;;;-0.17;90.92
18678;BME280;9469;51.114;13.914;2023-01-28T11:26:16;99921.59;;;-0.38;92.14
18678;BME280;9469;51.114;13.914;2023-01-28T11:31:22;99923.63;;;-0.33;92.30
18678;BME280;9469;51.114;13.914;2023-01-28T11:36:32;99909.34;;;-0.50;93.34
18678;BME280;9469;51.114;13.914;2023-01-28T11:41:38;99905.84;;;-0.84;94.01
18678;BME280;9469;51.114;13.914;2023-01-28T11:52:18;99895.47;;;-0.38;93.06
18678;BME280;9469;51.114;13.914;2023-01-28T11:57:31;99897.69;;;-0.28;93.93
18678;BME280;9469;51.114;13.914;2023-01-28T12:02:50;99895.84;;;0.05;92.57
18678;BME280;9469;51.114;13.914;2023-01-28T12:08:07;99893.06;;;-0.20;90.91
18678;BME280;9469;51.114;13.914;2023-01-28T12:13:24;99879.59;;;-0.17;92.76
18678;BME280;9469;51.114;13.914;2023-01-28T12:18:53;99887.41;;;-0.43;93.27
18678;BME280;9469;51.114;13.914;2023-01-28T12:24:13;99883.41;;;-0.32;92.83
18678;BME280;9469;51.114;13.914;2023-01-28T12:29:29;99883.38;;;-0.72;93.19
18678;BME280;9469;51.114;13.914;2023-01-28T12:40:36;99875.56;;;-0.13;93.51
18678;BME280;9469;51.114;13.914;2023-01-28T12:45:46;99874.94;;;-0.08;92.15
18678;BME280;9469;51.114;13.914;2023-01-28T12:51:00;99870.13;;;-0.24;92.16
18678;BME280;9469;51.114;13.914;2023-01-28T12:56:14;99873.09;;;0.12;90.94
18678;BME280;9469;51.114;13.914;2023-01-28T13:01:24;99866.47;;;0.03;91.64
18678;BME280;9469;51.114;13.914;2023-01-28T13:06:37;99872.34;;;-0.21;92.00
18678;BME280;9469;51.114;13.914;2023-01-28T13:11:47;99858.22;;;0.06;91.07
18678;BME280;9469;51.114;13.914;2023-01-28T13:16:53;99867.25;;;0.23;91.85
18678;BME280;9469;51.114;13.914;2023-01-28T13:22:09;99868.06;;;0.17;90.85
18678;BME280;9469;51.114;13.914;2023-01-28T13:27:24;99865.06;;;0.20;91.41
18678;BME280;9469;51.114;13.914;2023-01-28T13:32:33;99870.06;;;0.22;91.55
18678;BME280;9469;51.114;13.914;2023-01-28T13:37:43;99869.50;;;0.07;91.50
18678;BME280;9469;51.114;13.914;2023-01-28T13:43:01;99876.72;;;0.24;90.31
18678;BME280;9469;51.114;13.914;2023-01-28T13:48:20;99878.47;;;0.43;90.83
18678;BME280;9469;51.114;13.914;2023-01-28T13:53:38;99888.59;;;0.00;89.45
18678;BME280;9469;51.114;13.914;2023-01-28T13:59:20;99894.63;;;0.34;88.09
18678;BME280;9469;51.114;13.914;2023-01-28T14:04:47;99900.91;;;0.00;90.21
18678;BME280;9469;51.114;13.914;2023-01-28T14:10:10;99903.09;;;-0.04;89.33
18678;BME280;9469;51.114;13.914;2023-01-28T14:15:52;99910.38;;;-0.12;89.99
18678;BME280;9469;51.114;13.914;2023-01-28T14:21:07;99911.19;;;-0.18;90.05
18678;BME280;9469;51.114;13.914;2023-01-28T14:26:23;99919.63;;;-0.23;89.81
18678;BME280;9469;51.114;13.914;2023-01-28T14:31:39;99918.59;;;0.18;89.01
18678;BME280;9469;51.114;13.914;2023-01-28T14:36:45;99911.53;;;0.18;87.68
18678;BME280;9469;51.114;13.914;2023-01-28T14:41:54;99890.59;;;0.25;88.48
18678;BME280;9469;51.114;13.914;2023-01-28T14:53:08;99906.69;;;0.28;88.96
18678;BME280;9469;51.114;13.914;2023-01-28T14:58:18;99909.31;;;0.22;88.73
18678;BME280;9469;51.114;13.914;2023-01-28T15:03:28;99918.38;;;0.19;88.62
18678;BME280;9469;51.114;13.914;2023-01-28T15:08:36;99907.91;;;0.26;89.02
18678;BME280;9469;51.114;13.914;2023-01-28T15:13:43;99899.47;;;0.17;88.68
18678;BME280;9469;51.114;13.914;2023-01-28T15:18:49;99905.13;;;-0.19;87.76
18678;BME280;9469;51.114;13.914;2023-01-28T15:24:00;99909.53;;;-0.06;89.53
18678;BME280;9469;51.114;13.914;2023-01-28T15:29:22;99894.66;;;-0.06;88.38
18678;BME280;9469;51.114;13.914;2023-01-28T15:34:28;99890.19;;;0.21;87.72
18678;BME280;9469;51.114;13.914;2023-01-28T15:39:37;99888.59;;;0.14;88.44
18678;BME280;9469;51.114;13.914;2023-01-28T15:44:45;99883.63;;;-0.21;88.17
18678;BME280;9469;51.114;13.914;2023-01-28T15:49:53;99873.13;;;-0.40;88.98
18678;BME280;9469;51.114;13.914;2023-01-28T15:55:06;99874.97;;;-0.34;89.41
18678;BME280;9469;51.114;13.914;2023-01-28T16:00:13;99883.19;;;-0.11;90.27
18678;BME280;9469;51.114;13.914;2023-01-28T16:05:26;99875.94;;;0.04;89.99
18678;BME280;9469;51.114;13.914;2023-01-28T16:10:34;99873.69;;;0.21;89.53
18678;BME280;9469;51.114;13.914;2023-01-28T16:15:47;99867.06;;;0.05;84.97
18678;BME280;9469;51.114;13.914;2023-01-28T16:20:54;99881.19;;;-0.22;86.55
18678;BME280;9469;51.114;13.914;2023-01-28T16:26:04;99882.19;;;-0.23;87.32
18678;BME280;9469;51.114;13.914;2023-01-28T16:31:10;99876.13;;;0.09;85.13
18678;BME280;9469;51.114;13.914;2023-01-28T16:36:18;99887.59;;;0.08;84.39
18678;BME280;9469;51.114;13.914;2023-01-28T16:41:27;99895.47;;;-0.05;86.65
18678;BME280;9469;51.114;13.914;2023-01-28T16:46:35;99908.50;;;0.28;85.87
18678;BME280;9469;51.114;13.914;2023-01-28T16:51:42;99894.66;;;0.08;86.91
18678;BME280;9469;51.114;13.914;2023-01-28T16:56:52;99891.03;;;-0.37;87.06
18678;BME280;9469;51.114;13.914;2023-01-28T17:02:00;99885.81;;;-0.37;86.62
18678;BME280;9469;51.114;13.914;2023-01-28T17:07:07;99898.66;;;0.10;86.35
18678;BME280;9469;51.114;13.914;2023-01-28T17:12:18;99894.25;;;0.11;87.31
18678;BME280;9469;51.114;13.914;2023-01-28T17:17:24;99909.75;;;-0.14;86.91
18678;BME280;9469;51.114;13.914;2023-01-28T17:22:32;99916.78;;;-0.08;86.29
18678;BME280;9469;51.114;13.914;2023-01-28T17:27:40;99930.91;;;-0.09;86.72
18678;BME280;9469;51.114;13.914;2023-01-28T17:32:45;99935.91;;;-0.08;88.13
18678;BME280;9469;51.114;13.914;2023-01-28T17:37:51;99957.00;;;0.30;88.66
18678;BME280;9469;51.114;13.914;2023-01-28T17:42:59;99958.25;;;-0.05;89.35
18678;BME280;9469;51.114;13.914;2023-01-28T17:48:05;99953.63;;;0.10;88.30
18678;BME280;9469;51.114;13.914;2023-01-28T17:53:13;99959.03;;;0.28;87.66
18678;BME280;9469;51.114;13.914;2023-01-28T17:58:22;99966.91;;;0.15;86.95
18678;BME280;9469;51.114;13.914;2023-01-28T18:03:30;99968.50;;;-0.10;88.74
18678;BME280;9469;51.114;13.914;2023-01-28T18:08:37;99972.47;;;-0.47;89.48
18678;BME280;9469;51.114;13.914;2023-01-28T18:13:44;99962.44;;;-0.50;89.39
18678;BME280;9469;51.114;13.914;2023-01-28T18:18:52;99952.38;;;-0.33;86.58
18678;BME280;9469;51.114;13.914;2023-01-28T18:24:05;99949.38;;;-0.43;86.45
18678;BME280;9469;51.114;13.914;2023-01-28T18:29:13;99962.63;;;-0.38;87.47
18678;BME280;9469;51.114;13.914;2023-01-28T18:34:23;99972.47;;;-0.40;88.83
18678;BME280;9469;51.114;13.914;2023-01-28T18:39:29;99973.88;;;-0.57;89.06
18678;BME280;9469;51.114;13.914;2023-01-28T18:44:37;99974.31;;;-0.28;88.33
18678;BME280;9469;51.114;13.914;2023-01-28T18:49:43;99978.72;;;-0.41;89.14
18678;BME280;9469;51.114;13.914;2023-01-28T18:54:48;99990.50;;;-0.65;90.98
18678;BME280;9469;51.114;13.914;2023-01-28T18:59:55;99998.78;;;-0.68;92.26
18678;BME280;9469;51.114;13.914;2023-01-28T19:05:01;100023.75;;;-0.52;91.92
18678;BME280;9469;51.114;13.914;2023-01-28T19:10:06;100036.31;;;-0.76;93.99
18678;BME280;9469;51.114;13.914;2023-01-28T19:15:16;100037.06;;;-0.41;95.57
18678;BME280;9469;51.114;13.914;2023-01-28T19:20:22;100043.50;;;-0.30;96.14
18678;BME280;9469;51.114;13.914;2023-01-28T19:25:27;100038.63;;;-0.46;95.52
18678;BME280;9469;51.114;13.914;2023-01-28T19:30:36;100034.22;;;-0.39;96.62
18678;BME280;9469;51.114;13.914;2023-01-28T19:35:44;100017.97;;;-0.15;95.07
18678;BME280;9469;51.114;13.914;2023-01-28T19:40:49;100018.78;;;-0.28;96.07
18678;BME280;9469;51.114;13.914;2023-01-28T19:46:00;99999.88;;;-0.23;96.05
18678;BME280;9469;51.114;13.914;2023-01-28T19:51:07;100005.63;;;-0.47;97.66
18678;BME280;9469;51.114;13.914;2023-01-28T19:56:14;100012.81;;;-0.69;99.88
18678;BME280;9469;51.114;13.914;2023-01-28T20:01:23;100008.28;;;-0.95;100.00
18678;BME280;9469;51.114;13.914;2023-01-28T20:06:32;100005.44;;;-0.52;100.00
18678;BME280;9469;51.114;13.914;2023-01-28T20:11:40;99989.50;;;-0.77;100.00
18678;BME280;9469;51.114;13.914;2023-01-28T20:16:50;99996.66;;;-0.92;100.00
18678;BME280;9469;51.114;13.914;2023-01-28T20:21:56;99990.50;;;-0.72;100.00
18678;BME280;9469;51.114;13.914;2023-01-28T20:27:01;99972.22;;;-0.65;100.00
18678;BME280;9469;51.114;13.914;2023-01-28T20:32:11;99974.06;;;-0.52;100.00
18678;BME280;9469;51.114;13.914;2023-01-28T20:37:21;99973.72;;;-0.36;100.00
18678;BME280;9469;51.114;13.914;2023-01-28T20:42:26;99955.00;;;-0.20;100.00
18678;BME280;9469;51.114;13.914;2023-01-28T20:47:36;99973.00;;;-0.78;100.00
18678;BME280;9469;51.114;13.914;2023-01-28T20:52:42;99972.84;;;-1.10;100.00
18678;BME280;9469;51.114;13.914;2023-01-28T20:57:47;99979.56;;;-0.88;100.00
18678;BME280;9469;51.114;13.914;2023-01-28T21:02:55;99975.50;;;-1.04;100.00
18678;BME280;9469;51.114;13.914;2023-01-28T21:08:03;99981.69;;;-0.57;100.00
18678;BME280;9469;51.114;13.914;2023-01-28T21:13:08;100000.13;;;-0.79;100.00
18678;BME280;9469;51.114;13.914;2023-01-28T21:18:26;100006.75;;;-0.76;100.00
18678;BME280;9469;51.114;13.914;2023-01-28T21:23:32;100009.94;;;-0.87;100.00
18678;BME280;9469;51.114;13.914;2023-01-28T21:28:36;100017.22;;;-0.76;100.00
18678;BME280;9469;51.114;13.914;2023-01-28T21:33:50;100017.28;;;-0.56;100.00
18678;BME280;9469;51.114;13.914;2023-01-28T21:38:57;100018.56;;;-0.26;100.00
18678;BME280;9469;51.114;13.914;2023-01-28T21:44:05;100011.28;;;-0.50;100.00
18678;BME280;9469;51.114;13.914;2023-01-28T21:49:14;100023.31;;;-0.49;100.00
18678;BME280;9469;51.114;13.914;2023-01-28T21:54:19;100007.63;;;-0.56;100.00
18678;BME280;9469;51.114;13.914;2023-01-28T21:59:25;100005.34;;;-0.79;100.00
18678;BME280;9469;51.114;13.914;2023-01-28T22:04:37;100008.00;;;-0.65;100.00
18678;BME280;9469;51.114;13.914;2023-01-28T22:09:43;100008.91;;;-0.32;100.00
18678;BME280;9469;51.114;13.914;2023-01-28T22:14:50;100006.88;;;-0.43;100.00
18678;BME280;9469;51.114;13.914;2023-01-28T22:19:58;99995.16;;;-0.54;100.00
18678;BME280;9469;51.114;13.914;2023-01-28T22:25:04;99990.34;;;-0.63;100.00
18678;BME280;9469;51.114;13.914;2023-01-28T22:30:11;99975.06;;;-0.53;100.00
18678;BME280;9469;51.114;13.914;2023-01-28T22:35:19;99982.75;;;-0.45;100.00
18678;BME280;9469;51.114;13.914;2023-01-28T22:40:24;99973.75;;;-0.84;100.00
18678;BME280;9469;51.114;13.914;2023-01-28T22:45:29;99969.78;;;-0.80;100.00
18678;BME280;9469;51.114;13.914;2023-01-28T22:50:38;99981.19;;;-0.87;100.00
18678;BME280;9469;51.114;13.914;2023-01-28T22:55:43;99960.84;;;-1.05;100.00
18678;BME280;9469;51.114;13.914;2023-01-28T23:00:48;99962.00;;;-1.14;100.00
18678;BME280;9469;51.114;13.914;2023-01-28T23:05:59;99973.41;;;-0.74;100.00
18678;BME280;9469;51.114;13.914;2023-01-28T23:11:05;99961.94;;;-0.80;100.00
18678;BME280;9469;51.114;13.914;2023-01-28T23:16:16;99976.56;;;-0.92;100.00
18678;BME280;9469;51.114;13.914;2023-01-28T23:21:36;99982.31;;;-0.55;100.00
18678;BME280;9469;51.114;13.914;2023-01-28T23:26:55;99970.19;;;-0.69;100.00
18678;BME280;9469;51.114;13.914;2023-01-28T23:32:02;99959.44;;;-1.01;100.00
18678;BME280;9469;51.114;13.914;2023-01-28T23:37:11;99964.97;;;-0.76;100.00
18678;BME280;9469;51.114;13.914;2023-01-28T23:42:18;99973.03;;;-0.64;100.00
18678;BME280;9469;51.114;13.914;2023-01-28T23:47:24;99973.38;;;-0.81;100.00
18678;BME280;9469;51.114;13.914;2023-01-28T23:52:32;99975.38;;;-0.83;100.00
18678;BME280;9469;51.114;13.914;2023-01-28T23:57:37;99961.59;;;-0.63;100.00
